createdAt,value
2018-12-21T00:00:19.447Z,86.35
2018-12-21T00:01:19.426Z,86.63
2018-12-21T00:02:19.331Z,85.40
2018-12-21T00:03:19.277Z,86.07
2018-12-21T00:04:19.218Z,86.07
2018-12-21T00:05:19.165Z,86.44
2018-12-21T00:06:19.138Z,86.16
2018-12-21T00:07:19.056Z,85.78
2018-12-21T00:08:18.993Z,85.87
2018-12-21T00:09:18.937Z,85.02
2018-12-21T00:10:18.882Z,84.92
2018-12-21T00:11:18.871Z,84.36
2018-12-21T00:12:18.768Z,86.07
2018-12-21T00:13:18.715Z,85.97
2018-12-21T00:14:18.654Z,84.74
2018-12-21T00:15:18.600Z,85.49
2018-12-21T00:16:18.583Z,86.16
2018-12-21T00:17:18.486Z,85.21
2018-12-21T00:18:18.435Z,86.72
2018-12-21T00:19:18.373Z,87.01
2018-12-21T00:20:18.315Z,87.96
2018-12-21T00:21:21.876Z,87.58
2018-12-21T00:22:18.234Z,87.77
2018-12-21T00:23:18.149Z,86.91
2018-12-21T00:24:18.090Z,87.58
2018-12-21T00:25:18.036Z,88.62
2018-12-21T00:26:18.007Z,88.53
2018-12-21T00:27:17.922Z,88.34
2018-12-21T00:28:17.906Z,88.43
2018-12-21T00:29:17.809Z,87.87
2018-12-21T00:30:17.751Z,87.30
2018-12-21T00:31:17.985Z,87.20
2018-12-21T00:32:17.640Z,87.11
2018-12-21T00:33:17.624Z,85.49
2018-12-21T00:34:17.530Z,84.83
2018-12-21T00:35:17.467Z,83.69
2018-12-21T00:36:17.413Z,82.84
2018-12-21T00:37:17.357Z,82.74
2018-12-21T00:38:17.332Z,83.50
2018-12-21T00:39:17.242Z,82.74
2018-12-21T00:40:17.188Z,81.70
2018-12-21T00:41:17.133Z,81.51
2018-12-21T00:42:17.105Z,81.70
2018-12-21T00:43:17.017Z,80.65
2018-12-21T00:44:16.961Z,80.08
2018-12-21T00:45:16.905Z,79.90
2018-12-21T00:46:16.849Z,79.99
2018-12-21T00:47:16.822Z,79.71
2018-12-21T00:48:16.735Z,79.14
2018-12-21T00:49:16.680Z,78.09
2018-12-21T00:50:16.626Z,78.56
2018-12-21T00:51:16.599Z,78.00
2018-12-21T00:52:16.512Z,78.85
2018-12-21T00:53:16.489Z,79.90
2018-12-21T00:54:16.399Z,79.61
2018-12-21T00:55:16.343Z,79.80
2018-12-21T00:56:16.287Z,79.80
2018-12-21T00:57:16.230Z,79.42
2018-12-21T00:58:16.214Z,78.66
2018-12-21T00:59:16.117Z,78.85
2018-12-21T01:00:16.090Z,79.52
2018-12-21T01:01:16.003Z,79.52
2018-12-21T01:02:15.946Z,79.90
2018-12-21T01:03:15.899Z,81.13
2018-12-21T01:04:15.832Z,80.37
2018-12-21T01:05:15.809Z,80.46
2018-12-21T01:06:15.721Z,80.65
2018-12-21T01:07:15.661Z,82.46
2018-12-21T01:08:15.609Z,81.32
2018-12-21T01:09:15.581Z,81.41
2018-12-21T01:10:15.491Z,81.23
2018-12-21T01:11:15.438Z,81.32
2018-12-21T01:12:15.381Z,82.74
2018-12-21T01:13:15.359Z,83.12
2018-12-21T01:14:15.269Z,83.78
2018-12-21T01:15:15.211Z,82.84
2018-12-21T01:16:15.158Z,83.59
2018-12-21T01:17:15.129Z,83.31
2018-12-21T01:18:15.040Z,85.21
2018-12-21T01:19:14.985Z,85.11
2018-12-21T01:20:14.963Z,84.26
2018-12-21T01:21:14.907Z,84.92
2018-12-21T01:22:14.815Z,85.78
2018-12-21T01:23:14.792Z,84.55
2018-12-21T01:24:14.705Z,85.87
2018-12-21T01:25:14.676Z,86.07
2018-12-21T01:26:14.589Z,85.49
2018-12-21T01:27:14.534Z,85.97
2018-12-21T01:28:14.481Z,89.58
2018-12-21T01:29:14.446Z,88.24
2018-12-21T01:30:14.367Z,86.91
2018-12-21T01:31:14.332Z,89.58
2018-12-21T01:32:14.252Z,89.95
2018-12-21T01:33:14.209Z,91.19
2018-12-21T01:34:14.172Z,89.86
2018-12-21T01:35:14.083Z,90.14
2018-12-21T01:36:14.024Z,89.20
2018-12-21T01:37:13.973Z,90.05
2018-12-21T01:38:13.913Z,88.81
2018-12-21T01:39:13.893Z,88.34
2018-12-21T01:40:13.804Z,90.05
2018-12-21T01:41:13.777Z,89.76
2018-12-21T01:42:13.687Z,88.43
2018-12-21T01:43:13.634Z,88.43
2018-12-21T01:44:13.621Z,88.91
2018-12-21T01:45:13.521Z,89.00
2018-12-21T01:46:13.468Z,89.20
2018-12-21T01:47:13.414Z,88.24
2018-12-21T01:48:13.350Z,91.85
2018-12-21T01:49:13.326Z,93.37
2018-12-21T01:50:13.238Z,92.23
2018-12-21T01:51:13.182Z,90.43
2018-12-21T01:52:13.156Z,90.81
2018-12-21T01:53:13.068Z,90.81
2018-12-21T01:54:13.017Z,89.86
2018-12-21T01:55:12.989Z,89.29
2018-12-21T01:56:12.904Z,88.91
2018-12-21T01:57:12.876Z,90.52
2018-12-21T01:58:12.787Z,89.58
2018-12-21T01:59:12.731Z,93.37
2018-12-21T02:00:12.677Z,91.38
2018-12-21T02:01:12.619Z,90.90
2018-12-21T02:02:12.604Z,90.24
2018-12-21T02:03:12.507Z,91.28
2018-12-21T02:04:12.451Z,91.47
2018-12-21T02:05:12.394Z,90.81
2018-12-21T02:06:12.337Z,90.81
2018-12-21T02:07:12.316Z,89.95
2018-12-21T02:08:12.229Z,90.62
2018-12-21T02:09:12.168Z,90.71
2018-12-21T02:10:12.111Z,89.86
2018-12-21T02:11:12.057Z,91.09
2018-12-21T02:12:12.024Z,91.75
2018-12-21T02:13:11.947Z,91.66
2018-12-21T02:14:11.888Z,92.61
2018-12-21T02:15:11.831Z,93.27
2018-12-21T02:16:11.775Z,92.61
2018-12-21T02:17:11.752Z,93.84
2018-12-21T02:18:11.662Z,93.84
2018-12-21T02:19:11.610Z,94.51
2018-12-21T02:20:11.593Z,92.99
2018-12-21T02:21:11.495Z,92.61
2018-12-21T02:22:11.436Z,93.46
2018-12-21T02:23:11.382Z,93.75
2018-12-21T02:24:11.325Z,94.51
2018-12-21T02:25:11.304Z,96.22
2018-12-21T02:26:11.216Z,95.46
2018-12-21T02:27:11.156Z,97.55
2018-12-21T02:28:11.146Z,96.50
2018-12-21T02:29:11.046Z,95.46
2018-12-21T02:30:10.990Z,97.17
2018-12-21T02:31:10.939Z,96.78
2018-12-21T02:32:10.890Z,95.84
2018-12-21T02:33:10.853Z,96.31
2018-12-21T02:34:10.802Z,94.51
2018-12-21T02:35:10.715Z,96.03
2018-12-21T02:36:10.651Z,96.31
2018-12-21T02:37:10.597Z,95.93
2018-12-21T02:38:10.539Z,97.45
2018-12-21T02:39:10.515Z,95.74
2018-12-21T02:40:10.427Z,94.89
2018-12-21T02:41:10.371Z,97.36
2018-12-21T02:42:10.348Z,97.45
2018-12-21T02:43:10.258Z,96.88
2018-12-21T02:44:10.243Z,96.50
2018-12-21T02:45:10.148Z,96.78
2018-12-21T02:46:10.089Z,97.74
2018-12-21T02:47:10.039Z,96.69
2018-12-21T02:48:09.982Z,97.92
2018-12-21T02:49:09.951Z,99.99
2018-12-21T02:50:09.909Z,99.99
2018-12-21T02:51:09.847Z,98.21
2018-12-21T02:52:09.755Z,98.59
2018-12-21T02:53:09.695Z,98.78
2018-12-21T02:54:09.638Z,97.92
2018-12-21T02:55:09.625Z,97.55
2018-12-21T02:56:09.525Z,97.83
2018-12-21T02:57:09.475Z,98.11
2018-12-21T02:58:09.421Z,97.64
2018-12-21T02:59:09.357Z,99.06
2018-12-21T03:00:09.332Z,97.64
2018-12-21T03:01:09.250Z,97.74
2018-12-21T03:02:09.188Z,98.30
2018-12-21T03:03:09.163Z,98.21
2018-12-21T03:04:09.083Z,98.11
2018-12-21T03:05:09.019Z,97.74
2018-12-21T03:06:08.969Z,97.64
2018-12-21T03:07:08.941Z,96.88
2018-12-21T03:08:08.849Z,96.78
2018-12-21T03:09:08.826Z,97.64
2018-12-21T03:10:08.736Z,97.55
2018-12-21T03:11:08.681Z,97.36
2018-12-21T03:12:08.627Z,96.50
2018-12-21T03:13:08.571Z,95.93
2018-12-21T03:14:08.549Z,96.50
2018-12-21T03:15:08.488Z,97.83
2018-12-21T03:16:08.401Z,98.78
2018-12-21T03:17:08.345Z,97.64
2018-12-21T03:18:08.289Z,96.41
2018-12-21T03:19:08.230Z,97.83
2018-12-21T03:20:08.209Z,99.06
2018-12-21T03:21:08.156Z,98.02
2018-12-21T03:22:14.654Z,96.88
2018-12-21T03:23:08.010Z,97.36
2018-12-21T03:24:07.950Z,96.69
2018-12-21T03:25:07.897Z,96.97
2018-12-21T03:26:07.873Z,97.83
2018-12-21T03:27:07.785Z,97.55
2018-12-21T03:28:07.723Z,96.31
2018-12-21T03:29:07.671Z,96.78
2018-12-21T03:30:07.616Z,95.46
2018-12-21T03:31:07.590Z,96.03
2018-12-21T03:32:07.505Z,96.22
2018-12-21T03:33:07.447Z,98.68
2018-12-21T03:34:07.388Z,98.02
2018-12-21T03:35:07.331Z,96.69
2018-12-21T03:36:07.312Z,97.92
2018-12-21T03:37:07.247Z,98.68
2018-12-21T03:38:07.164Z,97.92
2018-12-21T03:39:07.106Z,97.83
2018-12-21T03:40:07.050Z,98.21
2018-12-21T03:41:07.030Z,97.55
2018-12-21T03:42:06.941Z,97.64
2018-12-21T03:43:06.886Z,97.45
2018-12-21T03:44:06.824Z,98.59
2018-12-21T03:45:06.806Z,98.87
2018-12-21T03:46:06.744Z,99.63
2018-12-21T03:47:06.654Z,97.55
2018-12-21T03:48:06.607Z,98.49
2018-12-21T03:49:06.581Z,98.59
2018-12-21T03:50:06.486Z,98.02
2018-12-21T03:51:06.433Z,99.44
2018-12-21T03:52:06.377Z,99.99
2018-12-21T03:53:06.319Z,98.87
2018-12-21T03:54:06.285Z,99.99
2018-12-21T03:55:06.213Z,99.26
2018-12-21T03:56:06.152Z,99.99
2018-12-21T03:57:06.125Z,99.99
2018-12-21T03:58:06.038Z,98.87
2018-12-21T03:59:06.012Z,99.99
2018-12-21T04:00:05.925Z,99.99
2018-12-21T04:01:05.871Z,99.99
2018-12-21T04:02:05.844Z,99.99
2018-12-21T04:03:05.760Z,99.99
2018-12-21T04:04:05.703Z,99.99
2018-12-21T04:05:05.645Z,99.99
2018-12-21T04:06:05.589Z,99.99
2018-12-21T04:07:05.565Z,99.99
2018-12-21T04:08:05.476Z,99.63
2018-12-21T04:09:05.424Z,99.99
2018-12-21T04:10:05.361Z,99.82
2018-12-21T04:11:05.336Z,99.99
2018-12-21T04:12:05.253Z,99.63
2018-12-21T04:13:05.198Z,99.54
2018-12-21T04:14:05.137Z,98.87
2018-12-21T04:15:05.081Z,97.26
2018-12-21T04:16:05.050Z,97.74
2018-12-21T04:17:04.999Z,97.64
2018-12-21T04:18:04.912Z,96.69
2018-12-21T04:19:04.859Z,96.69
2018-12-21T04:20:04.803Z,96.03
2018-12-21T04:21:04.782Z,96.50
2018-12-21T04:22:04.686Z,96.78
2018-12-21T04:23:04.631Z,96.41
2018-12-21T04:24:04.578Z,96.12
2018-12-21T04:25:04.521Z,95.84
2018-12-21T04:26:04.497Z,97.92
2018-12-21T04:27:04.411Z,96.41
2018-12-21T04:28:04.353Z,95.93
2018-12-21T04:29:04.305Z,95.93
2018-12-21T04:30:04.238Z,96.97
2018-12-21T04:31:04.215Z,96.41
2018-12-21T04:32:04.125Z,96.50
2018-12-21T04:33:04.111Z,96.31
2018-12-21T04:34:04.013Z,96.50
2018-12-21T04:35:03.963Z,96.03
2018-12-21T04:36:03.903Z,95.46
2018-12-21T04:37:03.844Z,94.51
2018-12-21T04:38:03.825Z,95.07
2018-12-21T04:39:03.764Z,95.74
2018-12-21T04:40:03.678Z,95.74
2018-12-21T04:41:03.620Z,95.84
2018-12-21T04:42:03.567Z,95.46
2018-12-21T04:43:03.505Z,96.03
2018-12-21T04:44:03.482Z,94.79
2018-12-21T04:45:03.393Z,96.50
2018-12-21T04:46:03.339Z,95.84
2018-12-21T04:47:03.280Z,95.93
2018-12-21T04:48:03.255Z,95.36
2018-12-21T04:49:03.167Z,95.46
2018-12-21T04:50:03.115Z,94.51
2018-12-21T04:51:03.060Z,94.79
2018-12-21T04:52:03.002Z,94.70
2018-12-21T04:53:02.969Z,94.79
2018-12-21T04:54:02.917Z,94.89
2018-12-21T04:55:02.832Z,94.70
2018-12-21T04:56:02.774Z,96.12
2018-12-21T04:57:02.776Z,95.36
2018-12-21T04:58:02.661Z,95.46
2018-12-21T04:59:02.612Z,95.65
2018-12-21T05:00:02.552Z,95.84
2018-12-21T05:01:02.494Z,95.27
2018-12-21T05:02:02.480Z,96.22
2018-12-21T05:03:02.389Z,95.27
2018-12-21T05:04:02.333Z,95.46
2018-12-21T05:05:02.270Z,95.27
2018-12-21T05:06:02.211Z,94.23
2018-12-21T05:07:02.189Z,95.74
2018-12-21T05:08:02.136Z,94.60
2018-12-21T05:09:02.041Z,94.42
2018-12-21T05:10:01.988Z,94.42
2018-12-21T05:11:01.929Z,95.17
2018-12-21T05:12:01.886Z,94.60
2018-12-21T05:13:01.868Z,94.03
2018-12-21T05:14:01.758Z,93.46
2018-12-21T05:15:01.700Z,93.84
2018-12-21T05:16:01.647Z,93.65
2018-12-21T05:17:01.591Z,93.65
2018-12-21T05:18:01.571Z,92.80
2018-12-21T05:19:01.482Z,94.13
2018-12-21T05:20:01.422Z,93.56
2018-12-21T05:21:01.364Z,93.84
2018-12-21T05:22:01.309Z,92.90
2018-12-21T05:23:01.283Z,93.37
2018-12-21T05:24:01.226Z,92.80
2018-12-21T05:25:01.145Z,91.38
2018-12-21T05:26:01.081Z,91.56
2018-12-21T05:27:01.071Z,91.38
2018-12-21T05:28:00.979Z,90.24
2018-12-21T05:29:00.914Z,90.71
2018-12-21T05:30:00.865Z,88.81
2018-12-21T05:31:00.831Z,89.00
2018-12-21T05:32:00.787Z,88.43
2018-12-21T05:33:00.694Z,86.91
2018-12-21T05:34:00.633Z,86.16
2018-12-21T05:35:00.574Z,85.59
2018-12-21T05:36:00.553Z,84.83
2018-12-21T05:37:00.460Z,83.22
2018-12-21T05:38:00.404Z,82.08
2018-12-21T05:39:00.358Z,80.27
2018-12-21T05:40:00.303Z,79.71
2018-12-21T05:41:00.267Z,79.04
2018-12-21T05:42:00.178Z,77.62
2018-12-21T05:43:00.122Z,75.72
2018-12-21T05:44:00.091Z,75.34
2018-12-21T05:45:00.020Z,74.96
2018-12-21T05:45:59.967Z,74.87
2018-12-21T05:46:59.937Z,73.54
2018-12-21T05:47:59.879Z,73.07
2018-12-21T05:48:59.793Z,72.49
2018-12-21T05:49:59.735Z,72.40
2018-12-21T05:50:59.679Z,71.92
2018-12-21T05:51:59.619Z,71.73
2018-12-21T05:53:00.837Z,71.92
2018-12-21T05:53:59.513Z,72.21
2018-12-21T05:54:59.450Z,72.40
2018-12-21T05:55:59.396Z,71.41
2018-12-21T05:56:59.370Z,70.31
2018-12-21T05:57:59.279Z,70.31
2018-12-21T05:58:59.261Z,69.55
2018-12-21T05:59:59.166Z,70.03
2018-12-21T06:00:59.110Z,69.36
2018-12-21T06:01:59.045Z,68.79
2018-12-21T06:02:58.987Z,68.32
2018-12-21T06:03:58.962Z,67.56
2018-12-21T06:04:58.874Z,67.90
2018-12-21T06:05:58.819Z,67.33
2018-12-21T06:06:58.764Z,66.67
2018-12-21T06:07:58.704Z,67.08
2018-12-21T06:08:58.681Z,66.29
2018-12-21T06:09:58.595Z,66.89
2018-12-21T06:10:58.532Z,66.20
2018-12-21T06:11:58.473Z,66.14
2018-12-21T06:12:58.458Z,65.91
2018-12-21T06:13:58.359Z,65.53
2018-12-21T06:14:58.304Z,65.66
2018-12-21T06:15:58.246Z,65.95
2018-12-21T06:16:58.189Z,65.19
2018-12-21T06:17:58.165Z,64.90
2018-12-21T06:18:58.074Z,64.71
2018-12-21T06:19:58.026Z,64.71
2018-12-21T06:20:57.964Z,64.71
2018-12-21T06:21:57.949Z,64.62
2018-12-21T06:22:57.855Z,64.90
2018-12-21T06:23:57.792Z,65.53
2018-12-21T06:24:57.736Z,65.63
2018-12-21T06:25:57.673Z,65.34
2018-12-21T06:26:57.651Z,65.34
2018-12-21T06:27:57.563Z,65.06
2018-12-21T06:28:57.558Z,65.47
2018-12-21T06:29:57.551Z,65.37
2018-12-21T06:30:57.391Z,65.47
2018-12-21T06:31:57.369Z,65.34
2018-12-21T06:32:57.279Z,64.97
2018-12-21T06:33:57.305Z,65.56
2018-12-21T06:34:57.196Z,64.78
2018-12-21T06:35:57.106Z,64.59
2018-12-21T06:36:57.050Z,63.95
2018-12-21T06:37:57.031Z,64.11
2018-12-21T06:38:56.937Z,64.14
2018-12-21T06:39:56.877Z,64.14
2018-12-21T06:40:56.824Z,64.11
2018-12-21T06:41:56.766Z,63.86
2018-12-21T06:42:56.743Z,63.29
2018-12-21T06:43:56.653Z,63.35
2018-12-21T06:44:56.593Z,62.88
2018-12-21T06:45:56.536Z,62.21
2018-12-21T06:46:56.486Z,62.50
2018-12-21T06:47:56.458Z,63.20
2018-12-21T06:48:56.396Z,63.20
2018-12-21T06:49:56.310Z,63.10
2018-12-21T06:50:56.254Z,63.86
2018-12-21T06:51:56.234Z,63.76
2018-12-21T06:52:56.137Z,64.14
2018-12-21T06:53:56.079Z,64.30
2018-12-21T06:54:56.021Z,64.14
2018-12-21T06:55:55.968Z,63.95
2018-12-21T06:56:55.942Z,64.05
2018-12-21T06:57:55.852Z,65.00
2018-12-21T06:58:55.836Z,64.81
2018-12-21T06:59:55.735Z,64.81
2018-12-21T07:00:55.680Z,65.66
2018-12-21T07:01:55.624Z,66.23
2018-12-21T07:02:55.568Z,66.04
2018-12-21T07:03:55.540Z,66.42
2018-12-21T07:04:55.452Z,66.71
2018-12-21T07:05:55.394Z,66.52
2018-12-21T07:06:55.337Z,66.23
2018-12-21T07:07:55.312Z,66.14
2018-12-21T07:08:55.223Z,66.23
2018-12-21T07:09:55.168Z,66.42
2018-12-21T07:10:55.146Z,66.04
2018-12-21T07:11:55.072Z,65.56
2018-12-21T07:12:54.994Z,66.04
2018-12-21T07:13:54.939Z,66.23
2018-12-21T07:14:54.920Z,66.23
2018-12-21T07:15:54.825Z,66.14
2018-12-21T07:16:54.767Z,65.85
2018-12-21T07:17:54.710Z,66.23
2018-12-21T07:18:54.655Z,66.14
2018-12-21T07:19:54.636Z,66.23
2018-12-21T07:20:54.575Z,66.80
2018-12-21T07:21:54.484Z,66.42
2018-12-21T07:22:54.425Z,67.08
2018-12-21T07:23:54.369Z,67.65
2018-12-21T07:24:54.309Z,68.60
2018-12-21T07:25:54.285Z,68.04
2018-12-21T07:26:54.236Z,67.46
2018-12-21T07:27:54.140Z,67.75
2018-12-21T07:28:54.085Z,67.27
2018-12-21T07:29:54.023Z,67.46
2018-12-21T07:30:53.967Z,67.65
2018-12-21T07:31:53.944Z,67.75
2018-12-21T07:32:53.856Z,67.56
2018-12-21T07:33:53.798Z,67.37
2018-12-21T07:34:53.740Z,68.51
2018-12-21T07:35:53.726Z,68.89
2018-12-21T07:36:53.627Z,68.23
2018-12-21T07:37:53.568Z,68.32
2018-12-21T07:38:53.525Z,68.60
2018-12-21T07:39:53.455Z,69.36
2018-12-21T07:40:53.435Z,70.40
2018-12-21T07:41:53.343Z,72.02
2018-12-21T07:42:53.284Z,71.64
2018-12-21T07:43:53.282Z,70.88
2018-12-21T07:44:53.170Z,73.82
2018-12-21T07:45:53.113Z,72.49
2018-12-21T07:46:53.086Z,71.07
2018-12-21T07:47:53.000Z,70.78
2018-12-21T07:48:52.945Z,72.11
2018-12-21T07:49:52.885Z,75.15
2018-12-21T07:50:52.834Z,74.87
2018-12-21T07:51:52.811Z,75.43
2018-12-21T07:52:53.407Z,74.87
2018-12-21T07:53:52.657Z,74.68
2018-12-21T07:54:52.599Z,74.30
2018-12-21T07:55:52.544Z,74.39
2018-12-21T07:56:52.527Z,74.20
2018-12-21T07:57:52.529Z,73.07
2018-12-21T07:58:57.017Z,72.02
2018-12-21T07:59:52.313Z,71.55
2018-12-21T08:00:52.257Z,72.49
2018-12-21T08:01:52.235Z,72.68
2018-12-21T08:02:52.142Z,72.30
2018-12-21T08:03:52.088Z,73.07
2018-12-21T08:04:52.030Z,72.49
2018-12-21T08:05:51.973Z,71.26
2018-12-21T08:06:51.945Z,72.11
2018-12-21T08:07:51.862Z,72.59
2018-12-21T08:08:51.835Z,72.49
2018-12-21T08:09:51.745Z,71.92
2018-12-21T08:10:51.697Z,73.44
2018-12-21T08:11:51.631Z,72.97
2018-12-21T08:12:51.575Z,72.97
2018-12-21T08:13:51.549Z,73.54
2018-12-21T08:14:51.461Z,73.07
2018-12-21T08:15:51.435Z,72.88
2018-12-21T08:16:51.346Z,72.02
2018-12-21T08:17:51.306Z,72.78
2018-12-21T08:18:51.229Z,71.83
2018-12-21T08:19:51.176Z,71.64
2018-12-21T08:20:51.158Z,71.45
2018-12-21T08:21:51.061Z,70.65
2018-12-21T08:22:51.004Z,71.03
2018-12-21T08:23:50.945Z,70.31
2018-12-21T08:24:50.886Z,70.12
2018-12-21T08:25:50.857Z,69.65
2018-12-21T08:26:50.773Z,68.70
2018-12-21T08:27:50.720Z,68.79
2018-12-21T08:28:50.661Z,69.08
2018-12-21T08:29:50.612Z,68.98
2018-12-21T08:30:50.593Z,68.85
2018-12-21T08:31:50.486Z,68.57
2018-12-21T08:32:50.428Z,68.85
2018-12-21T08:33:50.369Z,68.70
2018-12-21T08:34:50.315Z,67.65
2018-12-21T08:35:50.297Z,67.56
2018-12-21T08:36:50.224Z,67.33
2018-12-21T08:37:50.142Z,68.23
2018-12-21T08:38:50.084Z,67.65
2018-12-21T08:39:50.030Z,67.56
2018-12-21T08:40:50.012Z,67.27
2018-12-21T08:41:49.913Z,67.65
2018-12-21T08:42:49.856Z,67.65
2018-12-21T08:43:49.797Z,67.37
2018-12-21T08:44:49.741Z,67.33
2018-12-21T08:45:49.713Z,67.37
2018-12-21T08:46:49.631Z,66.99
2018-12-21T08:47:49.600Z,67.56
2018-12-21T08:48:49.512Z,67.85
2018-12-21T08:49:49.495Z,67.56
2018-12-21T08:50:49.400Z,67.05
2018-12-21T08:51:49.339Z,67.27
2018-12-21T08:52:49.286Z,66.52
2018-12-21T08:53:52.666Z,66.14
2018-12-21T08:54:49.292Z,65.95
2018-12-21T08:55:49.110Z,66.33
2018-12-21T08:56:49.058Z,65.82
2018-12-21T08:57:48.994Z,65.75
2018-12-21T08:58:48.940Z,65.95
2018-12-21T08:59:48.916Z,66.71
2018-12-21T09:00:48.824Z,66.42
2018-12-21T09:01:48.766Z,65.63
2018-12-21T09:02:48.708Z,66.33
2018-12-21T09:03:48.689Z,66.23
2018-12-21T09:04:48.596Z,66.42
2018-12-21T09:05:48.566Z,66.04
2018-12-21T09:06:48.480Z,65.85
2018-12-21T09:07:48.422Z,65.44
2018-12-21T09:08:48.365Z,66.33
2018-12-21T09:09:48.306Z,65.95
2018-12-21T09:10:48.291Z,66.23
2018-12-21T09:11:48.192Z,66.14
2018-12-21T09:12:48.133Z,66.61
2018-12-21T09:13:48.078Z,66.71
2018-12-21T09:14:48.019Z,66.04
2018-12-21T09:15:47.985Z,66.04
2018-12-21T09:16:47.904Z,65.19
2018-12-21T09:17:47.889Z,65.56
2018-12-21T09:18:47.791Z,65.37
2018-12-21T09:19:47.769Z,65.47
2018-12-21T09:20:47.676Z,65.56
2018-12-21T09:21:47.620Z,65.37
2018-12-21T09:22:47.591Z,65.75
2018-12-21T09:23:47.507Z,65.47
2018-12-21T09:24:47.488Z,65.56
2018-12-21T09:25:47.389Z,66.23
2018-12-21T09:26:47.332Z,65.85
2018-12-21T09:27:47.273Z,65.47
2018-12-21T09:28:47.218Z,65.75
2018-12-21T09:29:47.191Z,65.28
2018-12-21T09:30:47.103Z,65.75
2018-12-21T09:31:47.048Z,66.42
2018-12-21T09:32:46.988Z,66.99
2018-12-21T09:33:46.963Z,67.37
2018-12-21T09:34:46.874Z,67.08
2018-12-21T09:35:46.815Z,67.18
2018-12-21T09:36:46.759Z,67.85
2018-12-21T09:37:46.733Z,68.13
2018-12-21T09:38:46.645Z,67.94
2018-12-21T09:39:46.625Z,68.60
2018-12-21T09:40:46.528Z,68.51
2018-12-21T09:41:46.482Z,67.75
2018-12-21T09:42:46.415Z,67.75
2018-12-21T09:43:46.363Z,67.56
2018-12-21T09:44:52.510Z,68.23
2018-12-21T09:45:46.244Z,68.41
2018-12-21T09:46:46.187Z,68.04
2018-12-21T09:47:46.127Z,68.23
2018-12-21T09:48:46.108Z,68.13
2018-12-21T09:49:46.014Z,67.75
2018-12-21T09:50:45.958Z,68.41
2018-12-21T09:51:45.935Z,68.41
2018-12-21T09:52:45.842Z,68.32
2018-12-21T09:53:45.788Z,68.13
2018-12-21T09:54:45.732Z,67.75
2018-12-21T09:55:45.672Z,67.56
2018-12-21T09:56:45.645Z,67.46
2018-12-21T09:57:45.586Z,66.61
2018-12-21T09:58:45.500Z,66.61
2018-12-21T09:59:45.442Z,66.52
2018-12-21T10:00:45.385Z,66.23
2018-12-21T10:01:45.330Z,66.23
2018-12-21T10:02:45.313Z,65.66
2018-12-21T10:03:45.212Z,65.56
2018-12-21T10:04:45.154Z,65.37
2018-12-21T10:05:45.103Z,65.28
2018-12-21T10:06:45.042Z,65.47
2018-12-21T10:07:45.014Z,65.19
2018-12-21T10:08:44.931Z,64.81
2018-12-21T10:09:44.876Z,64.90
2018-12-21T10:10:44.813Z,65.47
2018-12-21T10:11:44.756Z,65.19
2018-12-21T10:12:44.731Z,65.28
2018-12-21T10:13:44.681Z,65.47
2018-12-21T10:14:44.584Z,65.95
2018-12-21T10:15:44.528Z,65.75
2018-12-21T10:16:44.549Z,65.95
2018-12-21T10:17:44.414Z,66.23
2018-12-21T10:18:44.393Z,66.14
2018-12-21T10:19:44.298Z,66.23
2018-12-21T10:20:44.243Z,66.23
2018-12-21T10:21:44.196Z,66.23
2018-12-21T10:22:44.126Z,66.23
2018-12-21T10:23:44.095Z,65.95
2018-12-21T10:24:44.013Z,65.66
2018-12-21T10:25:43.959Z,66.04
2018-12-21T10:26:43.932Z,66.04
2018-12-21T10:27:43.842Z,66.23
2018-12-21T10:28:43.784Z,65.56
2018-12-21T10:29:43.764Z,65.79
2018-12-21T10:30:43.669Z,65.31
2018-12-21T10:31:43.654Z,65.60
2018-12-21T10:32:43.557Z,65.60
2018-12-21T10:33:43.498Z,65.88
2018-12-21T10:34:43.443Z,65.88
2018-12-21T10:35:43.384Z,66.08
2018-12-21T10:36:43.359Z,66.93
2018-12-21T10:37:43.311Z,66.74
2018-12-21T10:38:43.213Z,66.55
2018-12-21T10:39:43.156Z,66.64
2018-12-21T10:40:43.101Z,66.93
2018-12-21T10:41:43.043Z,67.31
2018-12-21T10:42:43.028Z,67.69
2018-12-21T10:43:42.929Z,67.79
2018-12-21T10:44:42.872Z,67.59
2018-12-21T10:45:42.816Z,67.40
2018-12-21T10:46:42.759Z,67.40
2018-12-21T10:47:42.732Z,66.74
2018-12-21T10:48:42.643Z,66.27
2018-12-21T10:49:42.584Z,66.46
2018-12-21T10:50:42.531Z,66.27
2018-12-21T10:51:42.513Z,66.27
2018-12-21T10:52:42.418Z,66.74
2018-12-21T10:53:46.503Z,66.74
2018-12-21T10:54:42.303Z,67.59
2018-12-21T10:55:42.244Z,67.88
2018-12-21T10:56:42.224Z,67.88
2018-12-21T10:57:42.162Z,68.07
2018-12-21T10:58:42.079Z,67.69
2018-12-21T10:59:43.482Z,67.40
2018-12-21T11:00:41.963Z,68.16
2018-12-21T11:01:41.947Z,67.97
2018-12-21T11:02:41.847Z,67.88
2018-12-21T11:03:41.788Z,67.59
2018-12-21T11:04:41.732Z,67.50
2018-12-21T11:05:41.676Z,66.36
2018-12-21T11:06:41.659Z,66.08
2018-12-21T11:07:41.569Z,66.55
2018-12-21T11:08:41.504Z,66.55
2018-12-21T11:09:41.445Z,66.83
2018-12-21T11:10:41.396Z,66.64
2018-12-21T11:11:41.366Z,66.55
2018-12-21T11:12:41.282Z,66.27
2018-12-21T11:13:41.222Z,66.36
2018-12-21T11:14:41.165Z,66.55
2018-12-21T11:15:41.140Z,66.74
2018-12-21T11:16:41.052Z,66.74
2018-12-21T11:17:41.029Z,66.55
2018-12-21T11:18:40.939Z,66.27
2018-12-21T11:19:40.882Z,65.50
2018-12-21T11:20:40.825Z,65.79
2018-12-21T11:21:40.768Z,65.88
2018-12-21T11:22:40.749Z,65.31
2018-12-21T11:23:40.656Z,65.79
2018-12-21T11:24:40.616Z,65.41
2018-12-21T11:25:40.541Z,65.50
2018-12-21T11:26:40.486Z,65.03
2018-12-21T11:27:40.458Z,64.94
2018-12-21T11:28:40.369Z,64.94
2018-12-21T11:29:40.331Z,64.84
2018-12-21T11:30:40.258Z,65.03
2018-12-21T11:31:40.205Z,64.84
2018-12-21T11:32:40.177Z,64.94
2018-12-21T11:33:40.122Z,64.17
2018-12-21T11:34:40.031Z,64.27
2018-12-21T11:35:39.975Z,65.12
2018-12-21T11:36:39.919Z,65.12
2018-12-21T11:37:39.863Z,64.75
2018-12-21T11:38:39.847Z,65.12
2018-12-21T11:39:39.747Z,64.84
2018-12-21T11:40:39.693Z,64.94
2018-12-21T11:41:39.638Z,64.87
2018-12-21T11:42:39.582Z,64.78
2018-12-21T11:43:39.554Z,64.97
2018-12-21T11:44:39.467Z,65.16
2018-12-21T11:45:39.407Z,65.06
2018-12-21T11:46:39.353Z,65.16
2018-12-21T11:47:39.329Z,64.87
2018-12-21T11:48:39.241Z,64.87
2018-12-21T11:49:39.319Z,65.06
2018-12-21T11:50:39.128Z,64.97
2018-12-21T11:51:39.075Z,64.69
2018-12-21T11:52:39.069Z,65.35
2018-12-21T11:53:38.959Z,65.25
2018-12-21T11:54:44.173Z,65.63
2018-12-21T11:55:38.844Z,65.54
2018-12-21T11:56:38.789Z,66.01
2018-12-21T11:57:38.764Z,65.92
2018-12-21T11:58:38.712Z,66.11
2018-12-21T11:59:44.793Z,66.11
2018-12-21T12:00:38.609Z,66.11
2018-12-21T12:01:38.545Z,66.01
2018-12-21T12:02:38.452Z,66.01
2018-12-21T12:03:38.395Z,65.73
2018-12-21T12:04:38.339Z,65.63
2018-12-21T12:05:38.313Z,65.92
2018-12-21T12:06:38.229Z,66.11
2018-12-21T12:07:38.200Z,66.33
2018-12-21T12:08:38.115Z,67.00
2018-12-21T12:09:38.056Z,66.90
2018-12-21T12:10:38.035Z,67.47
2018-12-21T12:11:37.986Z,67.47
2018-12-21T12:12:39.339Z,67.94
2018-12-21T12:13:37.837Z,69.94
2018-12-21T12:14:37.778Z,71.18
2018-12-21T12:15:37.790Z,73.08
2018-12-21T12:16:37.667Z,73.84
2018-12-21T12:17:37.610Z,73.27
2018-12-21T12:18:37.693Z,73.36
2018-12-21T12:19:37.498Z,74.12
2018-12-21T12:20:37.442Z,74.03
2018-12-21T12:21:37.385Z,74.51
2018-12-21T12:22:37.345Z,74.79
2018-12-21T12:23:37.346Z,74.79
2018-12-21T12:24:37.222Z,74.41
2018-12-21T12:25:37.170Z,75.26
2018-12-21T12:26:44.235Z,78.63
2018-12-21T12:27:37.085Z,79.01
2018-12-21T12:28:37.007Z,79.77
2018-12-21T12:29:36.941Z,78.91
2018-12-21T12:30:36.885Z,78.63
2018-12-21T12:31:36.900Z,79.58
2018-12-21T12:32:36.775Z,81.58
2018-12-21T12:33:36.718Z,83.58
2018-12-21T12:34:36.701Z,83.10
2018-12-21T12:35:36.607Z,82.34
2018-12-21T12:36:36.562Z,81.58
2018-12-21T12:37:36.498Z,81.48
2018-12-21T12:38:36.441Z,80.24
2018-12-21T12:39:36.419Z,80.82
2018-12-21T12:40:36.334Z,80.82
2018-12-21T12:41:36.279Z,83.10
2018-12-21T12:42:36.259Z,82.05
2018-12-21T12:43:36.163Z,81.01
2018-12-21T12:44:36.106Z,80.34
2018-12-21T12:45:36.052Z,81.58
2018-12-21T12:46:36.131Z,80.63
2018-12-21T12:47:35.984Z,80.15
2018-12-21T12:48:35.886Z,82.24
2018-12-21T12:49:35.831Z,82.81
2018-12-21T12:50:35.818Z,83.29
2018-12-21T12:51:35.719Z,85.57